Time;durP1;ratioP1;P1;durP2;ratioP2;P2;SDS_P1;SDS_P2;PMS_P1;PMS_P2;Temp;Humidity;BMP_temperature;BMP_pressure;BME280_temperature;BME280_humidity;BME280_pressure;Samples;Min_cycle;Max_cycle;Signal;HPM_P1;HPM_P2
2022/11/01 00:02:49;;;;;;;6.95;3.30;;;;;;;12.30;100.00;98211.34;15270345;19;20070;-64
2022/11/01 00:08:17;;;;;;;5.97;3.13;;;;;;;12.24;100.00;98208.53;15268481;19;20018;-64
2022/11/01 00:13:48;;;;;;;7.43;3.40;;;;;;;12.18;100.00;98215.47;15271243;19;20017;-64
2022/11/01 00:19:13;;;;;;;7.57;3.27;;;;;;;12.09;100.00;98214.69;15268518;19;20019;-64
2022/11/01 00:24:40;;;;;;;7.68;3.90;;;;;;;12.05;100.00;98239.53;15269869;19;20312;-62
2022/11/01 00:30:06;;;;;;;10.00;4.00;;;;;;;12.05;100.00;98242.22;15271629;19;20011;-63
2022/11/01 00:35:30;;;;;;;7.90;4.47;;;;;;;12.04;100.00;98252.16;15265226;19;20021;-63
2022/11/01 00:40:57;;;;;;;9.93;4.50;;;;;;;12.05;100.00;98253.03;15268892;19;20396;-64
2022/11/01 00:46:22;;;;;;;8.55;4.75;;;;;;;11.98;100.00;98248.31;15265589;19;20042;-65
2022/11/01 00:51:46;;;;;;;8.45;5.03;;;;;;;11.88;100.00;98244.94;15269694;19;20045;-64
2022/11/01 00:57:14;;;;;;;8.20;4.20;;;;;;;11.86;100.00;98250.53;15267195;19;20025;-63
2022/11/01 01:02:39;;;;;;;8.32;3.50;;;;;;;11.93;100.00;98233.63;15268628;19;20029;-63
2022/11/01 01:08:03;;;;;;;7.30;3.13;;;;;;;11.99;100.00;98224.88;15267629;19;20033;-63
2022/11/01 01:13:30;;;;;;;9.07;3.38;;;;;;;12.01;100.00;98215.56;15267261;19;20015;-62
2022/11/01 01:18:54;;;;;;;6.65;3.28;;;;;;;11.99;100.00;98205.97;15266184;19;20010;-63
2022/11/01 01:24:20;;;;;;;7.57;3.45;;;;;;;11.96;100.00;98195.47;15266486;19;20413;-63
2022/11/01 01:29:47;;;;;;;7.57;3.55;;;;;;;11.86;100.00;98201.09;15263484;19;20026;-62
2022/11/01 01:35:12;;;;;;;5.20;2.90;;;;;;;11.91;100.00;98193.31;15276073;19;20093;-63
2022/11/01 01:40:36;;;;;;;8.02;2.85;;;;;;;12.01;100.00;98199.38;15281363;19;20022;-63
2022/11/01 01:46:03;;;;;;;6.20;3.22;;;;;;;12.01;100.00;98218.28;15273630;19;20021;-63
2022/11/01 01:51:32;;;;;;;9.27;3.30;;;;;;;11.92;100.00;98218.44;15281921;19;20377;-61
2022/11/01 01:56:57;;;;;;;6.90;3.10;;;;;;;11.78;100.00;98222.72;15275882;19;20051;-63
2022/11/01 02:02:26;;;;;;;7.85;3.40;;;;;;;11.60;100.00;98212.97;15284619;19;20365;-63
2022/11/01 02:07:51;;;;;;;7.40;3.90;;;;;;;11.56;100.00;98206.25;15272397;19;20426;-61
2022/11/01 02:13:21;;;;;;;8.95;3.67;;;;;;;11.54;100.00;98202.88;15279629;19;20022;-61
2022/11/01 02:18:53;;;;;;;7.47;3.28;;;;;;;11.58;100.00;98206.94;15274546;19;20247;-61
2022/11/01 02:24:54;;;;;;;6.30;3.40;;;;;;;11.60;100.00;98204.88;15278056;19;21322;-63
2022/11/01 02:30:22;;;;;;;7.13;3.30;;;;;;;11.60;100.00;98198.66;15280527;19;20791;-65
2022/11/01 02:36:02;;;;;;;8.73;3.20;;;;;;;11.59;100.00;98200.50;15273841;19;20007;-63
2022/11/01 02:41:31;;;;;;;4.95;2.88;;;;;;;11.57;100.00;98197.16;15273544;19;20865;-62
2022/11/01 02:47:02;;;;;;;5.72;3.10;;;;;;;11.57;100.00;98211.47;15272676;19;20015;-66
2022/11/01 02:52:32;;;;;;;7.57;2.92;;;;;;;11.59;100.00;98200.50;15271601;19;20495;-64
2022/11/01 02:57:57;;;;;;;6.77;3.13;;;;;;;11.54;100.00;98202.88;15273943;19;20036;-61
2022/11/01 03:03:27;;;;;;;5.20;2.80;;;;;;;11.52;100.00;98191.41;15272805;19;20880;-62
2022/11/01 03:08:59;;;;;;;7.25;3.20;;;;;;;11.47;100.00;98183.00;14765652;19;10001413;-63
2022/11/01 03:14:31;;;;;;;7.13;3.08;;;;;;;11.36;100.00;98195.00;15285959;19;20006;-63
2022/11/01 03:20:03;;;;;;;7.60;3.50;;;;;;;11.30;100.00;98196.53;15277442;19;20025;-61
2022/11/01 03:25:43;;;;;;;9.03;3.70;;;;;;;11.28;100.00;98201.25;15266330;19;20772;-60
2022/11/01 03:31:11;;;;;;;6.85;3.22;;;;;;;11.28;100.00;98203.94;15280473;19;20126;-61
2022/11/01 03:36:40;;;;;;;7.05;3.20;;;;;;;11.31;100.00;98202.75;15272251;19;20018;-59
2022/11/01 03:42:13;;;;;;;6.53;3.10;;;;;;;11.42;100.00;98215.88;15275473;19;20499;-63
2022/11/01 03:47:38;;;;;;;7.00;3.10;;;;;;;11.51;100.00;98214.00;15270128;19;20015;-59
2022/11/01 03:53:03;;;;;;;6.70;3.10;;;;;;;11.66;100.00;98189.84;15277693;19;20022;-61
2022/11/01 03:58:40;;;;;;;6.47;2.80;;;;;;;11.69;100.00;98201.16;15272752;19;20022;-61
2022/11/01 04:04:04;;;;;;;7.20;3.00;;;;;;;11.71;100.00;98222.56;15275632;19;20078;-63
2022/11/01 04:09:28;;;;;;;7.93;3.17;;;;;;;11.75;100.00;98214.97;15274945;19;20361;-61
2022/11/01 04:20:35;;;;;;;6.97;2.97;;;;;;;11.90;100.00;98202.44;15276136;19;20015;-62
2022/11/01 04:25:59;;;;;;;9.77;3.20;;;;;;;12.00;100.00;98207.63;15273211;19;20010;-62
2022/11/01 04:31:45;;;;;;;6.95;3.15;;;;;;;12.04;100.00;98205.44;15283702;19;20479;-64
2022/11/01 04:37:15;;;;;;;8.25;3.25;;;;;;;12.06;100.00;98208.78;15273682;19;20100;-62
2022/11/01 04:42:41;;;;;;;7.40;3.30;;;;;;;12.08;100.00;98221.09;15282004;19;20010;-62
2022/11/01 04:48:15;;;;;;;5.70;3.03;;;;;;;12.11;100.00;98219.91;15267635;19;20029;-61
2022/11/01 04:53:47;;;;;;;8.05;3.10;;;;;;;12.14;100.00;98214.16;15274924;19;20018;-59
2022/11/01 04:59:12;;;;;;;7.50;3.13;;;;;;;12.17;100.00;98211.13;15270184;19;20029;-59
2022/11/01 05:04:39;;;;;;;6.55;3.28;;;;;;;12.20;100.00;98202.63;15263647;19;20807;-60
2022/11/01 05:10:04;;;;;;;7.25;3.30;;;;;;;12.23;100.00;98202.28;15291025;19;20025;-59
2022/11/01 05:15:29;;;;;;;8.23;3.40;;;;;;;12.21;100.00;98215.13;15282523;19;20029;-60
2022/11/01 05:21:07;;;;;;;6.50;3.00;;;;;;;12.21;100.00;98209.72;15293100;19;20391;-61
2022/11/01 05:26:32;;;;;;;9.07;3.38;;;;;;;12.21;100.00;98222.41;15278999;19;20018;-59
2022/11/01 05:31:58;;;;;;;7.55;3.25;;;;;;;12.25;100.00;98216.47;15287816;19;20011;-61
2022/11/01 05:37:26;;;;;;;6.80;3.30;;;;;;;12.30;100.00;98213.22;15281968;19;20018;-62
2022/11/01 05:42:51;;;;;;;9.10;3.30;;;;;;;12.43;100.00;98223.44;15288207;19;20018;-58
2022/11/01 05:48:15;;;;;;;8.02;3.33;;;;;;;12.63;100.00;98230.09;15278726;19;20354;-61
2022/11/01 05:53:42;;;;;;;7.80;3.05;;;;;;;12.81;100.00;98237.03;15290982;19;20014;-60
2022/11/01 05:59:06;;;;;;;7.30;3.10;;;;;;;12.92;100.00;98236.63;15279723;19;20014;-62
2022/11/01 06:04:31;;;;;;;6.63;2.75;;;;;;;13.05;100.00;98252.22;15280628;19;20031;-62
2022/11/01 06:09:58;;;;;;;8.30;3.10;;;;;;;13.10;100.00;98265.22;15282607;19;21140;-58
2022/11/01 06:15:23;;;;;;;5.18;2.80;;;;;;;13.22;100.00;98293.53;15274872;19;20512;-62
2022/11/01 06:20:53;;;;;;;6.40;2.70;;;;;;;13.24;100.00;98310.41;15289921;19;20014;-63
2022/11/01 06:26:21;;;;;;;6.70;2.90;;;;;;;13.34;100.00;98328.28;15278266;19;20018;-59
2022/11/01 06:31:46;;;;;;;5.82;2.90;;;;;;;13.38;100.00;98316.03;15284596;19;20014;-59
2022/11/01 06:37:11;;;;;;;6.28;2.95;;;;;;;13.41;100.00;98318.44;15284915;19;20543;-60
2022/11/01 06:42:38;;;;;;;7.13;3.22;;;;;;;13.41;100.00;98294.06;15282890;19;20044;-58
2022/11/01 06:48:04;;;;;;;9.23;3.35;;;;;;;13.41;100.00;98310.31;15274503;19;20476;-61
2022/11/01 06:53:29;;;;;;;7.20;3.30;;;;;;;13.42;100.00;98320.13;15283509;19;20034;-59
2022/11/01 06:58:56;;;;;;;7.03;3.00;;;;;;;13.44;100.00;98300.97;15275064;19;20018;-61
2022/11/01 07:04:20;;;;;;;7.95;3.35;;;;;;;13.45;100.00;98314.34;15276707;19;20022;-60
2022/11/01 07:09:45;;;;;;;8.05;3.50;;;;;;;13.46;100.00;98321.44;15274900;19;20473;-61
2022/11/01 07:15:13;;;;;;;7.35;3.00;;;;;;;13.49;100.00;98326.47;15269519;19;20018;-63
2022/11/01 07:20:42;;;;;;;8.77;3.40;;;;;;;13.51;100.00;98332.53;15279260;19;20010;-60
2022/11/01 07:26:07;;;;;;;5.78;3.03;;;;;;;13.52;100.00;98363.19;15277036;19;20019;-63
2022/11/01 07:31:37;;;;;;;11.80;3.55;;;;;;;13.50;100.00;98370.63;15279595;19;20018;-63
2022/11/01 07:37:01;;;;;;;7.03;3.25;;;;;;;13.49;100.00;98363.53;15276173;19;20018;-60
2022/11/01 07:42:26;;;;;;;7.65;3.38;;;;;;;13.50;100.00;98354.38;15279307;19;20010;-58
2022/11/01 07:47:53;;;;;;;7.00;3.42;;;;;;;13.52;100.00;98358.59;15272744;19;20011;-61
2022/11/01 07:53:20;;;;;;;8.93;3.30;;;;;;;13.54;100.00;98359.25;15281885;19;20015;-59
2022/11/01 07:58:44;;;;;;;7.20;3.25;;;;;;;13.61;100.00;98364.78;15278385;19;20034;-62
2022/11/01 08:04:11;;;;;;;5.65;3.20;;;;;;;13.68;100.00;98378.44;15270791;19;20049;-63
2022/11/01 08:09:36;;;;;;;5.82;3.20;;;;;;;13.68;100.00;98383.84;15273518;19;20018;-59
2022/11/01 08:15:01;;;;;;;6.28;3.25;;;;;;;13.77;100.00;98390.88;15271980;19;20022;-58
2022/11/01 08:20:29;;;;;;;5.07;2.88;;;;;;;13.95;100.00;98395.09;15277094;19;20014;-60
2022/11/01 08:25:54;;;;;;;6.75;2.97;;;;;;;14.13;100.00;98398.31;15269571;19;20010;-60
2022/11/01 08:31:18;;;;;;;9.15;3.15;;;;;;;14.23;100.00;98394.50;15278572;19;20010;-58
2022/11/01 08:36:45;;;;;;;7.32;3.17;;;;;;;14.31;100.00;98378.13;15271896;19;20018;-58
2022/11/01 08:42:10;;;;;;;6.90;3.03;;;;;;;14.39;100.00;98391.63;15273306;19;20014;-60
2022/11/01 08:47:35;;;;;;;8.57;3.03;;;;;;;14.40;100.00;98385.16;15274796;19;20007;-58
2022/11/01 08:53:02;;;;;;;8.00;3.30;;;;;;;14.42;100.00;98395.81;15275440;19;20568;-57
2022/11/01 08:58:27;;;;;;;6.53;3.13;;;;;;;14.44;100.00;98400.00;15267057;19;20475;-59
2022/11/01 09:03:52;;;;;;;7.88;3.00;;;;;;;14.41;100.00;98421.22;15276015;19;20496;-58
2022/11/01 09:09:19;;;;;;;7.65;3.20;;;;;;;14.39;100.00;98434.13;15272673;19;20425;-61
2022/11/01 09:14:46;;;;;;;6.28;3.10;;;;;;;14.35;100.00;98447.22;15263109;19;20015;-57
2022/11/01 09:20:13;;;;;;;5.45;3.10;;;;;;;14.43;100.00;98459.84;15270585;19;20025;-60
2022/11/01 09:25:41;;;;;;;8.60;3.00;;;;;;;14.52;100.00;98455.19;15264444;19;20018;-60
2022/11/01 09:31:07;;;;;;;6.05;2.63;;;;;;;14.66;100.00;98440.75;15271768;19;20731;-62
2022/11/01 09:36:38;;;;;;;6.68;3.10;;;;;;;14.77;100.00;98442.22;15274294;19;20019;-61
2022/11/01 09:42:11;;;;;;;6.82;2.65;;;;;;;14.85;100.00;98454.84;15274109;19;20503;-62
2022/11/01 09:47:49;;;;;;;6.75;2.55;;;;;;;14.98;100.00;98463.16;15271336;19;20025;-60
2022/11/01 09:53:20;;;;;;;4.82;2.30;;;;;;;15.16;100.00;98464.63;15285294;19;20015;-64
2022/11/01 09:59:01;;;;;;;2.97;1.60;;;;;;;15.33;100.00;98457.94;15288237;19;20636;-65
2022/11/01 10:04:46;;;;;;;3.70;1.57;;;;;;;15.54;100.00;98464.44;15294934;19;20014;-60
2022/11/01 10:10:19;;;;;;;3.22;1.58;;;;;;;15.70;100.00;98463.34;15289538;19;20040;-61
2022/11/01 10:16:04;;;;;;;2.97;1.27;;;;;;;15.82;100.00;98448.19;15289935;19;20056;-62
2022/11/01 10:21:31;;;;;;;4.00;1.30;;;;;;;15.93;100.00;98441.44;15347348;19;20014;-65
2022/11/01 10:27:04;;;;;;;1.95;1.10;;;;;;;16.00;100.00;98442.34;15354898;19;20017;-65
2022/11/01 10:32:40;;;;;;;1.92;0.90;;;;;;;16.10;100.00;98436.56;15355600;19;20010;-65
2022/11/01 10:38:14;;;;;;;2.78;0.82;;;;;;;16.16;100.00;98438.50;15325751;19;20015;-61
2022/11/01 10:43:51;;;;;;;1.83;0.90;;;;;;;16.25;100.00;98438.34;15285043;19;20018;-63
2022/11/01 10:49:25;;;;;;;1.23;0.70;;;;;;;16.28;100.00;98449.69;15277432;19;20022;-62
2022/11/01 10:55:11;;;;;;;1.15;0.70;;;;;;;16.35;100.00;98446.16;15283491;19;20349;-60
2022/11/01 11:00:41;;;;;;;2.00;0.88;;;;;;;16.36;100.00;98445.94;15284004;19;20056;-61
2022/11/01 11:06:12;;;;;;;2.47;1.02;;;;;;;16.42;100.00;98452.47;15278421;19;20018;-63
2022/11/01 11:11:41;;;;;;;2.17;1.00;;;;;;;16.47;100.00;98455.44;15281890;19;20030;-62
2022/11/01 11:17:05;;;;;;;1.95;0.90;;;;;;;16.45;100.00;98450.22;15278187;19;20099;-61
2022/11/01 11:22:38;;;;;;;2.13;0.98;;;;;;;16.41;100.00;98448.91;15282007;19;20043;-62
2022/11/01 11:28:02;;;;;;;1.40;0.90;;;;;;;16.39;100.00;98442.00;15274377;19;20378;-62
2022/11/01 11:33:27;;;;;;;2.17;0.93;;;;;;;16.39;100.00;98436.56;15281802;19;20021;-63
2022/11/01 11:38:56;;;;;;;1.27;0.88;;;;;;;16.38;100.00;98438.44;15278256;19;20023;-63
2022/11/01 11:44:41;;;;;;;1.48;0.90;;;;;;;16.39;100.00;98455.59;15278113;19;20015;-63
2022/11/01 11:50:36;;;;;;;1.55;0.90;;;;;;;16.39;100.00;98461.03;15274472;19;20018;-63
2022/11/01 11:56:07;;;;;;;2.45;0.90;;;;;;;16.39;100.00;98470.03;15277427;19;20022;-63
2022/11/01 12:01:33;;;;;;;2.22;1.02;;;;;;;16.42;100.00;98477.78;15276049;19;20010;-63
2022/11/01 12:06:58;;;;;;;2.58;1.10;;;;;;;16.54;100.00;98479.97;15274579;19;20368;-63
2022/11/01 12:12:33;;;;;;;2.67;1.30;;;;;;;16.53;100.00;98487.28;15276474;19;20020;-63
2022/11/01 12:18:05;;;;;;;2.10;1.25;;;;;;;16.51;100.00;98500.25;15268029;19;20018;-63
2022/11/01 12:23:37;;;;;;;3.47;1.23;;;;;;;16.42;100.00;98504.13;15274239;19;20747;-63
2022/11/01 12:29:09;;;;;;;2.67;1.50;;;;;;;16.37;100.00;98493.03;15270065;19;20030;-63
2022/11/01 12:34:39;;;;;;;2.22;1.30;;;;;;;16.32;100.00;98486.28;15273620;19;20476;-62
2022/11/01 12:40:09;;;;;;;2.50;1.20;;;;;;;16.31;100.00;98489.22;15275154;19;20023;-63
2022/11/01 12:45:48;;;;;;;3.75;1.02;;;;;;;16.33;100.00;98498.84;15275128;19;20035;-64
2022/11/01 12:51:17;;;;;;;3.30;1.30;;;;;;;16.40;100.00;98492.63;15273403;19;20524;-64
2022/11/01 12:56:42;;;;;;;2.25;1.10;;;;;;;16.41;100.00;98486.13;15270835;19;20022;-64
2022/11/01 13:02:27;;;;;;;2.83;1.30;;;;;;;16.54;100.00;98486.22;15273496;19;20498;-63
2022/11/01 13:08:02;;;;;;;2.85;1.23;;;;;;;16.67;100.00;98479.22;15267764;19;20018;-63
2022/11/01 13:13:33;;;;;;;1.90;1.05;;;;;;;16.77;100.00;98479.69;15272829;19;20015;-63
2022/11/01 13:19:18;;;;;;;2.95;1.33;;;;;;;16.88;100.00;98487.28;15267092;19;20015;-63
2022/11/01 13:24:49;;;;;;;2.88;1.20;;;;;;;16.87;100.00;98484.78;15271762;19;20379;-63
2022/11/01 13:30:20;;;;;;;2.08;0.98;;;;;;;16.88;100.00;98487.28;15280083;19;20010;-63
2022/11/01 13:35:54;;;;;;;2.70;1.08;;;;;;;16.87;100.00;98493.78;15286517;19;20018;-63
2022/11/01 13:41:25;;;;;;;1.83;1.00;;;;;;;16.84;100.00;98480.59;15287012;19;20029;-63
2022/11/01 13:47:21;;;;;;;2.88;1.20;;;;;;;16.84;100.00;98486.03;15283516;19;20026;-63
2022/11/01 13:52:57;;;;;;;1.80;1.20;;;;;;;16.82;100.00;98493.53;15284909;19;20019;-62
2022/11/01 13:58:24;;;;;;;4.40;1.30;;;;;;;16.75;100.00;98489.94;15280098;19;20039;-63
2022/11/01 14:03:48;;;;;;;2.13;1.20;;;;;;;16.73;100.00;98483.88;15284479;19;20026;-62
2022/11/01 14:09:34;;;;;;;3.03;1.13;;;;;;;17.14;100.00;98474.88;15280293;19;20018;-62
2022/11/01 14:15:00;;;;;;;3.13;1.30;;;;;;;17.32;100.00;98473.50;15278225;19;20621;-62
2022/11/01 14:20:51;;;;;;;2.47;1.15;;;;;;;17.43;100.00;98472.91;15282431;19;20021;-62
2022/11/01 14:26:45;;;;;;;3.40;1.33;;;;;;;17.40;100.00;98473.31;15283132;19;20504;-64
2022/11/01 14:32:12;;;;;;;2.20;1.05;;;;;;;17.47;100.00;98463.28;15279599;19;20078;-62
2022/11/01 14:37:46;;;;;;;2.45;1.08;;;;;;;17.41;100.00;98475.81;15277340;19;20019;-62
2022/11/01 14:43:20;;;;;;;2.47;1.00;;;;;;;17.26;100.00;98477.88;15280184;19;20035;-62
2022/11/01 14:48:51;;;;;;;2.05;1.02;;;;;;;17.21;100.00;98478.50;15276673;19;20022;-60
2022/11/01 14:54:23;;;;;;;2.60;1.20;;;;;;;17.06;100.00;98477.78;15280178;19;20047;-64
2022/11/01 14:59:50;;;;;;;2.38;1.00;;;;;;;16.91;100.00;98484.16;15280685;19;20026;-62
2022/11/01 15:05:17;;;;;;;2.55;1.25;;;;;;;16.74;100.00;98499.16;15284380;19;20021;-66
2022/11/01 15:10:48;;;;;;;1.52;1.05;;;;;;;16.67;100.00;98490.09;15278120;19;20085;-66
2022/11/01 15:16:21;;;;;;;4.30;1.17;;;;;;;16.51;100.00;98492.09;15278555;19;20473;-64
2022/11/01 15:21:50;;;;;;;1.83;1.02;;;;;;;16.37;100.00;98501.19;15278917;19;20018;-63
2022/11/01 15:27:18;;;;;;;1.80;1.08;;;;;;;16.25;100.00;98504.44;15277240;19;20021;-63
2022/11/01 15:32:45;;;;;;;1.80;0.93;;;;;;;16.18;100.00;98517.09;15278944;19;20034;-63
2022/11/01 15:38:19;;;;;;;2.65;1.20;;;;;;;16.07;100.00;98514.91;15274102;19;20014;-62
2022/11/01 15:43:43;;;;;;;2.25;1.20;;;;;;;15.95;100.00;98515.44;15277174;19;20063;-61
2022/11/01 15:49:13;;;;;;;2.35;1.40;;;;;;;15.84;100.00;98524.97;15271842;19;20019;-61
2022/11/01 15:54:48;;;;;;;3.00;1.40;;;;;;;15.68;100.00;98531.44;15277060;19;20010;-61
2022/11/01 16:00:19;;;;;;;3.10;2.45;;;;;;;15.54;100.00;98532.31;15276812;19;20094;-63
2022/11/01 16:05:53;;;;;;;3.05;2.38;;;;;;;15.41;100.00;98530.25;15272183;19;20014;-63
2022/11/01 16:11:21;;;;;;;2.58;1.48;;;;;;;15.25;100.00;98537.59;15270376;19;20015;-65
2022/11/01 16:17:05;;;;;;;2.78;1.33;;;;;;;15.04;100.00;98546.50;15273762;19;20043;-64
2022/11/01 16:22:37;;;;;;;4.00;1.70;;;;;;;14.85;100.00;98541.63;15273325;19;20018;-64
2022/11/01 16:28:08;;;;;;;4.03;3.10;;;;;;;14.66;100.00;98549.22;15272834;19;20035;-64
2022/11/01 16:33:45;;;;;;;3.87;2.20;;;;;;;14.48;100.00;98563.97;15273557;19;20029;-64
2022/11/01 16:39:37;;;;;;;4.15;2.15;;;;;;;14.22;100.00;98583.34;15268222;19;20287;-65
2022/11/01 16:45:02;;;;;;;2.60;1.40;;;;;;;14.02;100.00;98574.84;15266940;19;20030;-64
2022/11/01 16:50:27;;;;;;;3.92;2.97;;;;;;;13.92;100.00;98585.91;15255745;19;20025;-64
2022/11/01 16:55:57;;;;;;;3.40;2.88;;;;;;;13.83;100.00;98590.50;15265780;19;20019;-63
2022/11/01 17:01:41;;;;;;;5.18;4.35;;;;;;;13.69;100.00;98602.94;15264662;19;20022;-62
2022/11/01 17:07:06;;;;;;;4.93;2.78;;;;;;;13.59;100.00;98606.88;15264377;19;20022;-63
2022/11/01 17:12:33;;;;;;;3.72;1.80;;;;;;;13.47;100.00;98626.22;15241826;19;20030;-61
2022/11/01 17:17:58;;;;;;;3.58;1.58;;;;;;;13.33;100.00;98629.63;15264113;19;20472;-62
2022/11/01 17:23:27;;;;;;;2.28;1.20;;;;;;;13.19;100.00;98633.88;15260051;19;20023;-61
2022/11/01 17:28:55;;;;;;;1.85;1.30;;;;;;;13.04;100.00;98641.88;15263307;19;20436;-61
2022/11/01 17:34:19;;;;;;;2.20;1.38;;;;;;;12.94;100.00;98652.88;15264393;19;20620;-61
2022/11/01 17:39:45;;;;;;;2.67;1.30;;;;;;;12.80;100.00;98651.69;15262681;19;20019;-63
2022/11/01 17:45:13;;;;;;;2.50;1.25;;;;;;;12.67;100.00;98640.56;15264902;19;20018;-65
2022/11/01 17:50:38;;;;;;;3.00;1.10;;;;;;;12.59;100.00;98655.78;15262619;19;20490;-64
2022/11/01 17:56:04;;;;;;;2.83;1.10;;;;;;;12.45;100.00;98648.31;15263083;19;20472;-62
2022/11/01 18:01:32;;;;;;;2.20;1.00;;;;;;;12.44;100.00;98649.34;15263383;19;20022;-67
2022/11/01 18:06:56;;;;;;;3.88;1.10;;;;;;;12.39;100.00;98654.41;15266795;19;20010;-64
2022/11/01 18:12:29;;;;;;;2.28;1.20;;;;;;;12.31;100.00;98656.06;15261779;19;20338;-65
2022/11/01 18:18:18;;;;;;;2.88;1.20;;;;;;;12.18;100.00;98664.66;15276280;19;20018;-64
2022/11/01 18:23:45;;;;;;;3.05;1.10;;;;;;;12.15;100.00;98658.75;15278448;19;20021;-64
2022/11/01 18:29:22;;;;;;;2.80;0.98;;;;;;;12.10;100.00;98664.66;15271262;19;20329;-63
2022/11/01 18:34:56;;;;;;;2.33;1.00;;;;;;;12.07;100.00;98670.38;15275989;19;20378;-64
2022/11/01 18:40:26;;;;;;;3.60;1.27;;;;;;;12.01;100.00;98673.72;15275656;19;20019;-64
2022/11/01 18:45:53;;;;;;;1.52;1.00;;;;;;;11.91;100.00;98679.25;15274391;19;20611;-64
2022/11/01 18:51:43;;;;;;;3.08;1.10;;;;;;;11.75;100.00;98689.97;15269318;19;20050;-64
2022/11/01 18:57:16;;;;;;;2.53;1.13;;;;;;;11.78;100.00;98678.88;15272462;19;20014;-64
2022/11/01 19:02:41;;;;;;;2.55;1.00;;;;;;;11.74;100.00;98694.53;15278800;19;20055;-65
2022/11/01 19:08:23;;;;;;;2.63;1.00;;;;;;;11.84;100.00;98689.84;15273045;19;20021;-61
2022/11/01 19:13:48;;;;;;;2.05;1.13;;;;;;;11.81;100.00;98697.44;15277070;19;20026;-61
2022/11/01 19:19:22;;;;;;;2.10;1.17;;;;;;;11.77;100.00;98693.38;15271917;19;20498;-62
2022/11/01 19:24:50;;;;;;;2.05;0.95;;;;;;;11.70;100.00;98694.00;15271823;19;20045;-61
2022/11/01 19:30:28;;;;;;;2.25;1.05;;;;;;;11.63;100.00;98702.94;15270271;19;20014;-61
2022/11/01 19:35:56;;;;;;;2.53;1.00;;;;;;;11.58;100.00;98698.03;15277410;19;20024;-62
2022/11/01 19:41:28;;;;;;;2.42;1.10;;;;;;;11.55;100.00;98703.72;15270232;19;20623;-62
2022/11/01 19:46:56;;;;;;;3.17;1.07;;;;;;;11.49;100.00;98707.06;15270426;19;20027;-61
2022/11/01 19:52:32;;;;;;;3.40;0.95;;;;;;;11.43;100.00;98707.72;15270019;19;20252;-61
2022/11/01 19:58:23;;;;;;;2.43;1.00;;;;;;;11.45;100.00;98703.84;15270559;19;20026;-61
2022/11/01 20:03:54;;;;;;;1.75;0.82;;;;;;;11.49;100.00;98696.25;15267495;19;20014;-60
2022/11/01 20:09:23;;;;;;;3.72;1.00;;;;;;;11.47;100.00;98709.06;15270601;19;20011;-61
2022/11/01 20:14:50;;;;;;;3.03;1.00;;;;;;;11.40;100.00;98703.50;15271692;19;20018;-60
2022/11/01 20:20:21;;;;;;;3.25;1.10;;;;;;;11.41;100.00;98705.16;15268682;19;20026;-60
2022/11/01 20:25:45;;;;;;;2.33;0.93;;;;;;;11.38;100.00;98700.09;15272269;19;20795;-60
2022/11/01 20:31:13;;;;;;;1.63;0.93;;;;;;;11.32;100.00;98720.47;15266529;19;20753;-58
2022/11/01 20:36:37;;;;;;;3.40;1.10;;;;;;;11.24;100.00;98725.78;15264303;19;20021;-61
2022/11/01 20:42:22;;;;;;;2.92;1.20;;;;;;;11.19;100.00;98730.81;15268414;19;20018;-61
2022/11/01 20:47:50;;;;;;;3.70;1.27;;;;;;;11.16;100.00;98731.13;15267177;19;20018;-60
2022/11/01 20:53:15;;;;;;;2.20;1.15;;;;;;;11.10;100.00;98725.38;15264531;19;20019;-58
2022/11/01 20:58:46;;;;;;;2.13;1.00;;;;;;;11.01;100.00;98726.28;15266356;19;20010;-60
2022/11/01 21:04:19;;;;;;;5.25;1.38;;;;;;;10.88;100.00;98717.75;15266786;19;20247;-60
2022/11/01 21:09:45;;;;;;;2.05;1.00;;;;;;;10.79;100.00;98716.88;15259721;19;20032;-60
2022/11/01 21:15:32;;;;;;;2.80;0.98;;;;;;;10.69;100.00;98721.50;15267591;19;20019;-60
2022/11/01 21:21:03;;;;;;;3.20;0.93;;;;;;;10.61;100.00;98741.13;15264688;19;20021;-60
2022/11/01 21:26:30;;;;;;;3.47;1.20;;;;;;;10.54;100.00;98735.50;15263924;19;20014;-58
2022/11/01 21:31:55;;;;;;;3.72;1.00;;;;;;;10.47;100.00;98735.25;15261805;19;20752;-61
2022/11/01 21:37:23;;;;;;;2.63;1.00;;;;;;;10.44;100.00;98737.44;15266229;19;20018;-57
2022/11/01 21:42:48;;;;;;;2.78;1.00;;;;;;;10.39;100.00;98732.50;15259977;19;20379;-59
2022/11/01 21:48:27;;;;;;;3.17;1.10;;;;;;;10.34;100.00;98742.84;15267882;19;20364;-59
2022/11/01 21:53:54;;;;;;;2.85;0.88;;;;;;;10.29;100.00;98745.16;15280540;19;20026;-58
2022/11/01 21:59:21;;;;;;;2.28;0.90;;;;;;;10.39;100.00;98753.19;15277632;19;20035;-60
2022/11/01 22:04:46;;;;;;;1.92;0.80;;;;;;;10.44;100.00;98746.34;15279896;19;20719;-60
2022/11/01 22:10:15;;;;;;;2.58;0.90;;;;;;;10.41;100.00;98740.41;15279499;19;20014;-59
2022/11/01 22:15:39;;;;;;;1.67;0.82;;;;;;;10.54;100.00;98737.34;15275660;19;20030;-59
2022/11/01 22:21:04;;;;;;;3.50;0.90;;;;;;;10.50;100.00;98736.78;15279307;19;20018;-61
2022/11/01 22:26:31;;;;;;;1.77;0.80;;;;;;;10.51;100.00;98729.56;15280778;19;20019;-59
2022/11/01 22:31:56;;;;;;;2.42;1.00;;;;;;;10.51;100.00;98735.81;15275584;19;20018;-61
2022/11/01 22:37:20;;;;;;;2.75;0.90;;;;;;;10.46;100.00;98733.56;15279128;19;20024;-60
2022/11/01 22:42:49;;;;;;;3.13;1.02;;;;;;;10.43;100.00;98739.25;15278365;19;20015;-61
2022/11/01 22:48:25;;;;;;;2.53;1.00;;;;;;;10.34;100.00;98756.31;15277641;19;20024;-61
2022/11/01 22:53:50;;;;;;;1.77;0.90;;;;;;;10.29;100.00;98756.75;15272709;19;20029;-62
2022/11/01 22:59:23;;;;;;;2.50;1.10;;;;;;;10.18;100.00;98767.75;15275551;19;20014;-61
2022/11/01 23:04:51;;;;;;;2.90;0.95;;;;;;;10.14;100.00;98766.31;15278615;19;20086;-62
2022/11/01 23:10:31;;;;;;;2.60;0.95;;;;;;;10.03;100.00;98756.63;15278054;19;20035;-60
2022/11/01 23:16:07;;;;;;;2.15;0.98;;;;;;;9.96;100.00;98767.16;15271872;19;20118;-59
2022/11/01 23:21:32;;;;;;;4.65;1.05;;;;;;;9.86;100.00;98764.47;15276044;19;20027;-62
2022/11/01 23:26:56;;;;;;;5.25;1.10;;;;;;;9.79;100.00;98770.59;15275906;19;20454;-58
2022/11/01 23:32:30;;;;;;;2.17;1.17;;;;;;;9.69;100.00;98770.66;15263092;19;20021;-57
2022/11/01 23:37:58;;;;;;;1.80;1.10;;;;;;;9.56;100.00;98779.91;15271251;19;20360;-49
2022/11/01 23:43:29;;;;;;;2.78;1.10;;;;;;;9.44;100.00;98780.19;15266397;19;20021;-49
2022/11/01 23:49:02;;;;;;;3.83;1.20;;;;;;;9.31;100.00;98775.16;15270104;19;20031;-54
2022/11/01 23:54:32;;;;;;;2.80;1.10;;;;;;;9.27;100.00;98773.72;15269637;19;20014;-55
2022/11/01 23:59:57;;;;;;;2.97;0.97;;;;;;;9.35;100.00;98779.25;15274727;19;20475;-50
